createdAt,value
2023-05-09T00:06:53.984Z,485.75
2023-05-09T00:16:59.193Z,484.83
2023-05-09T00:27:00.595Z,479.75
2023-05-09T00:37:01.964Z,475.73
2023-05-09T00:47:03.391Z,467.45
2023-05-09T00:57:04.937Z,446.67
2023-05-09T01:07:19.355Z,495.77
2023-05-09T01:17:29.106Z,499.20
2023-05-09T01:27:51.043Z,497.80
2023-05-09T01:37:52.435Z,543.40
2023-05-09T01:47:53.887Z,544.03
2023-05-09T01:57:55.459Z,566.10
2023-05-09T02:08:00.197Z,589.10
2023-05-09T02:18:01.745Z,550.05
2023-05-09T02:28:03.166Z,605.03
2023-05-09T02:38:04.564Z,567.50
2023-05-09T02:48:09.014Z,583.53
2023-05-09T02:58:14.605Z,567.70
2023-05-09T03:08:16.569Z,490.15
2023-05-09T03:18:18.853Z,538.97
2023-05-09T03:28:20.306Z,559.22
2023-05-09T03:38:24.155Z,585.90
2023-05-09T03:48:25.539Z,609.50
2023-05-09T03:58:27.077Z,626.72
2023-05-09T04:08:28.510Z,622.78
2023-05-09T04:18:31.164Z,649.53
2023-05-09T04:28:32.854Z,582.35
2023-05-09T04:38:34.754Z,610.40
2023-05-09T04:48:36.316Z,630.40
2023-05-09T04:58:40.646Z,642.65
2023-05-09T05:08:42.106Z,629.20
2023-05-09T05:18:43.475Z,640.95
2023-05-09T05:28:44.878Z,673.72
2023-05-09T05:38:46.269Z,670.97
2023-05-09T05:48:47.817Z,701.72
2023-05-09T05:58:49.435Z,719.83
2023-05-09T06:08:51.079Z,689.25
2023-05-09T06:18:55.491Z,714.70
2023-05-09T06:28:57.534Z,738.22
2023-05-09T06:38:58.995Z,747.58
2023-05-09T06:49:02.489Z,796.17
2023-05-09T06:59:03.923Z,800.17
2023-05-09T07:09:05.391Z,776.63
2023-05-09T07:19:06.818Z,780.28
2023-05-09T07:29:08.211Z,792.50
2023-05-09T07:39:10.665Z,817.55
2023-05-09T07:49:12.058Z,779.88
2023-05-09T07:59:13.524Z,793.83
2023-05-09T08:09:15.170Z,792.45
2023-05-09T08:19:16.858Z,785.30
2023-05-09T08:29:18.316Z,776.85
2023-05-09T08:39:19.702Z,788.63
2023-05-09T08:49:21.193Z,813.33
2023-05-09T08:59:22.683Z,773.08
2023-05-09T09:09:24.215Z,892.88
2023-05-09T09:19:30.247Z,692.20
2023-05-09T09:29:31.753Z,695.50
2023-05-09T09:39:33.296Z,632.67
2023-05-09T09:49:34.993Z,663.13
2023-05-09T09:59:36.577Z,691.58
2023-05-09T10:09:38.126Z,720.03
2023-05-09T10:19:39.607Z,709.10
2023-05-09T10:29:44.447Z,707.58
2023-05-09T10:39:46.262Z,706.80
2023-05-09T10:49:47.694Z,726.58
2023-05-09T10:59:49.464Z,741.35
2023-05-09T11:10:10.308Z,619.10
2023-05-09T11:20:11.838Z,696.50
2023-05-09T11:30:17.701Z,681.65
2023-05-09T11:40:20.267Z,705.17
2023-05-09T11:50:21.776Z,693.28
2023-05-09T12:00:24.066Z,676.22
2023-05-09T12:10:25.742Z,661.08
2023-05-09T12:20:27.129Z,660.70
2023-05-09T12:30:28.565Z,584.35
2023-05-09T12:40:30.085Z,693.17
2023-05-09T12:50:35.823Z,683.70
2023-05-09T13:00:46.372Z,677.05
2023-05-09T13:10:47.756Z,682.25
2023-05-09T13:20:49.176Z,659.60
2023-05-09T13:30:50.893Z,669.28
2023-05-09T13:40:52.353Z,648.97
2023-05-09T13:50:55.829Z,621.45
2023-05-09T14:00:57.383Z,732.55
2023-05-09T14:10:58.753Z,688.72
2023-05-09T14:21:00.289Z,762.25
2023-05-09T14:31:02.338Z,790.67
2023-05-09T14:41:04.281Z,759.58
2023-05-09T14:51:05.900Z,743.92
2023-05-09T15:01:07.359Z,829.63
2023-05-09T15:11:09.089Z,763.20
2023-05-09T15:21:10.616Z,792.08
2023-05-09T15:31:12.256Z,787.13
2023-05-09T15:41:14.759Z,793.50
2023-05-09T15:51:16.270Z,893.55
2023-05-09T16:01:17.782Z,836.50
2023-05-09T16:11:19.366Z,702.28
2023-05-09T16:21:22.277Z,661.58
2023-05-09T16:31:27.248Z,653.92
2023-05-09T16:41:28.654Z,659.17
2023-05-09T16:51:30.482Z,722.33
2023-05-09T17:01:32.495Z,857.25
2023-05-09T17:11:33.912Z,999.90
2023-05-09T17:21:35.347Z,999.90
2023-05-09T17:31:37.039Z,793.42
2023-05-09T17:41:38.497Z,745.15
2023-05-09T17:51:40.029Z,683.92
2023-05-09T18:01:41.532Z,801.13
2023-05-09T18:11:43.485Z,747.35
2023-05-09T18:21:44.874Z,910.38
2023-05-09T18:31:46.294Z,674.33
2023-05-09T18:41:47.709Z,715.58
2023-05-09T18:51:49.159Z,694.05
2023-05-09T19:01:50.653Z,999.90
2023-05-09T19:11:52.331Z,999.90
2023-05-09T19:21:54.816Z,920.53
2023-05-09T19:31:56.339Z,786.95
2023-05-09T19:42:00.317Z,878.33
2023-05-09T19:52:02.213Z,901.15
2023-05-09T20:02:03.684Z,956.78
2023-05-09T20:12:05.333Z,900.58
2023-05-09T20:22:06.981Z,888.35
2023-05-09T20:32:08.486Z,738.28
2023-05-09T20:42:09.907Z,924.70
2023-05-09T20:52:11.305Z,910.60
2023-05-09T21:02:13.675Z,999.90
2023-05-09T21:12:15.298Z,999.90
2023-05-09T21:22:16.738Z,999.90
2023-05-09T21:32:18.111Z,830.60
2023-05-09T21:42:19.656Z,814.45
2023-05-09T21:52:23.353Z,862.45
2023-05-09T22:02:24.939Z,930.97
2023-05-09T22:12:26.672Z,978.78
2023-05-09T22:22:28.119Z,999.90
2023-05-09T22:32:29.540Z,999.90
2023-05-09T22:42:31.049Z,999.90
2023-05-09T22:52:32.441Z,926.42
2023-05-09T23:02:34.031Z,922.33
2023-05-09T23:12:35.514Z,942.97
2023-05-09T23:22:36.909Z,905.05
2023-05-09T23:32:38.484Z,925.97
2023-05-09T23:42:39.894Z,926.83
2023-05-09T23:52:41.703Z,925.05
